createdAt,value
2018-06-02T00:05:54.215Z,10.74
2018-06-02T00:11:49.230Z,10.34
2018-06-02T00:17:44.226Z,11.1
2018-06-02T00:23:39.223Z,10.41
2018-06-02T00:29:34.244Z,10.79
2018-06-02T00:35:29.231Z,10.91
2018-06-02T00:41:24.293Z,10.45
2018-06-02T00:47:19.219Z,11.29
2018-06-02T00:53:14.283Z,12.01
2018-06-02T00:59:09.226Z,12.27
2018-06-02T01:05:04.298Z,14.35
2018-06-02T01:10:59.333Z,14.26
2018-06-02T01:16:54.315Z,13.69
2018-06-02T01:22:49.346Z,12.83
2018-06-02T01:28:44.335Z,12.4
2018-06-02T01:34:39.318Z,11.66
2018-06-02T01:40:34.346Z,11.89
2018-06-02T01:46:29.278Z,11.06
2018-06-02T01:52:24.288Z,11.68
2018-06-02T01:58:19.353Z,11.72
2018-06-02T02:04:14.362Z,12.6
2018-06-02T02:10:09.355Z,13.07
2018-06-02T02:16:04.370Z,12.51
2018-06-02T02:21:59.327Z,12.8
2018-06-02T02:27:54.339Z,12.78
2018-06-02T02:33:49.379Z,12.55
2018-06-02T02:39:44.328Z,12.89
2018-06-02T02:45:39.340Z,13.28
2018-06-02T02:51:34.351Z,12.74
2018-06-02T02:57:29.413Z,12.78
2018-06-02T03:03:24.348Z,12.29
2018-06-02T03:09:19.420Z,12.51
2018-06-02T03:15:14.381Z,13.23
2018-06-02T03:21:09.386Z,12.42
2018-06-02T03:27:04.385Z,12.42
2018-06-02T03:32:59.389Z,13.27
2018-06-02T03:38:54.375Z,12.01
2018-06-02T03:44:49.386Z,12.32
2018-06-02T03:50:44.370Z,11.58
2018-06-02T03:56:39.393Z,12.19
2018-06-02T04:02:34.455Z,11.28
2018-06-02T04:08:29.413Z,11.73
2018-06-02T04:14:24.445Z,12.96
2018-06-02T04:20:19.403Z,12.55
2018-06-02T04:26:14.419Z,11.97
2018-06-02T04:32:09.501Z,12.19
2018-06-02T04:38:04.452Z,12.64
2018-06-02T04:43:59.449Z,13.24
2018-06-02T04:49:54.393Z,12.5
2018-06-02T04:55:49.424Z,11.59
2018-06-02T05:01:44.413Z,9.4
2018-06-02T05:07:39.477Z,10.54
2018-06-02T05:13:34.434Z,12.71
2018-06-02T05:19:29.430Z,13.16
2018-06-02T05:25:24.482Z,12.97
2018-06-02T05:31:19.468Z,13.08
2018-06-02T05:37:14.493Z,13.47
2018-06-02T05:43:09.458Z,11.17
2018-06-02T05:49:04.492Z,11.7
2018-06-02T05:54:59.466Z,13.4
2018-06-02T06:00:54.478Z,13.6
2018-06-02T06:06:49.497Z,13.93
2018-06-02T06:12:44.524Z,13.7
2018-06-02T06:18:39.578Z,14.17
2018-06-02T06:24:34.505Z,12.38
2018-06-02T06:30:29.501Z,13.96
2018-06-02T06:36:24.572Z,12.67
2018-06-02T06:42:19.483Z,13.49
2018-06-02T06:48:14.624Z,13.64
2018-06-02T06:54:09.549Z,13.45
2018-06-02T07:00:05.540Z,13.15
2018-06-02T07:05:59.601Z,12.63
2018-06-02T07:11:54.530Z,12.95
2018-06-02T07:17:49.652Z,13.58
2018-06-02T07:23:44.534Z,13.35
2018-06-02T07:29:39.530Z,12.44
2018-06-02T07:35:34.539Z,12.28
2018-06-02T07:41:29.598Z,11.33
2018-06-02T07:47:24.577Z,11.05
2018-06-02T07:53:19.555Z,11.34
2018-06-02T07:59:14.591Z,10.25
2018-06-02T08:05:09.556Z,9.01
2018-06-02T08:11:04.604Z,10.29
2018-06-02T08:16:59.566Z,8.5
2018-06-02T08:22:54.748Z,7.63
2018-06-02T08:28:49.587Z,7.49
2018-06-02T08:34:44.625Z,6.82
2018-06-02T08:40:39.608Z,6.74
2018-06-02T08:46:34.586Z,6.28
2018-06-02T08:52:29.606Z,6.8
2018-06-02T08:58:24.592Z,6.57
2018-06-02T09:04:19.661Z,7.06
2018-06-02T09:10:14.627Z,7.77
2018-06-02T09:16:09.609Z,6.84
2018-06-02T09:22:04.642Z,7.33
2018-06-02T09:27:59.695Z,6.96
2018-06-02T09:33:54.639Z,7.2
2018-06-02T09:39:49.660Z,7.68
2018-06-02T09:45:44.693Z,6.66
2018-06-02T09:51:39.702Z,6.43
2018-06-02T09:57:34.657Z,6.03
2018-06-02T10:03:29.727Z,6.1
2018-06-02T10:09:24.664Z,6.28
2018-06-02T10:15:19.672Z,6.45
2018-06-02T10:21:14.685Z,6.01
2018-06-02T10:27:09.675Z,6.94
2018-06-02T10:33:04.746Z,6.82
2018-06-02T10:38:59.768Z,6.55
2018-06-02T10:44:54.691Z,6.74
2018-06-02T10:50:49.749Z,6.14
2018-06-02T10:56:44.747Z,7.44
2018-06-02T11:02:39.809Z,5.03
2018-06-02T11:08:34.864Z,5.51
2018-06-02T11:14:29.731Z,5.21
2018-06-02T11:20:24.707Z,5.64
2018-06-02T11:26:19.753Z,5.45
2018-06-02T11:32:14.765Z,4.91
2018-06-02T11:38:09.734Z,4.23
2018-06-02T11:44:04.815Z,4.27
2018-06-02T11:49:59.762Z,4.5
2018-06-02T11:55:54.787Z,4.55
2018-06-02T12:01:49.877Z,4.05
2018-06-02T12:07:44.818Z,4.16
2018-06-02T12:13:39.771Z,3.46
2018-06-02T12:19:34.790Z,3.66
2018-06-02T12:25:29.805Z,4.06
2018-06-02T12:31:24.816Z,3.25
2018-06-02T12:37:19.781Z,3.61
2018-06-02T12:43:14.812Z,2.98
2018-06-02T12:49:09.823Z,3.17
2018-06-02T12:55:04.813Z,3.3
2018-06-02T13:00:59.826Z,3.19
2018-06-02T13:06:54.828Z,3.08
2018-06-02T13:12:49.848Z,2.88
2018-06-02T13:18:44.842Z,2.75
2018-06-02T13:24:39.895Z,3.2
2018-06-02T13:30:34.841Z,3.13
2018-06-02T13:36:29.886Z,2.87
2018-06-02T13:42:24.906Z,2.78
2018-06-02T13:48:19.848Z,2.82
2018-06-02T13:54:14.879Z,2.76
2018-06-02T14:00:09.969Z,2.98
2018-06-02T14:06:04.946Z,2.66
2018-06-02T14:11:59.932Z,3.06
2018-06-02T14:17:54.946Z,3.26
2018-06-02T14:23:49.887Z,2.9
2018-06-02T14:29:44.916Z,2.97
2018-06-02T14:35:39.921Z,2.88
2018-06-02T14:41:34.946Z,2.62
2018-06-02T14:47:29.888Z,2.64
2018-06-02T14:53:24.930Z,2.87
2018-06-02T14:59:19.959Z,2.65
2018-06-02T15:05:14.980Z,2.65
2018-06-02T15:11:09.930Z,2.36
2018-06-02T15:17:04.948Z,2.54
2018-06-02T15:22:59.976Z,2.3
2018-06-02T15:28:55.007Z,2.52
2018-06-02T15:34:49.974Z,2.69
2018-06-02T15:40:44.971Z,2.09
2018-06-02T15:46:39.994Z,2.36
2018-06-02T15:52:34.990Z,2.03
2018-06-02T15:58:30.036Z,2.11
2018-06-02T16:04:25.038Z,2.13
2018-06-02T16:10:20.017Z,2.37
2018-06-02T16:16:15.012Z,1.81
2018-06-02T16:22:10.020Z,2.32
2018-06-02T16:28:05.066Z,3.96
2018-06-02T16:34:00.051Z,2.02
2018-06-02T16:39:55.065Z,1.92
2018-06-02T16:45:50.040Z,1.88
2018-06-02T16:51:45.031Z,2.07
2018-06-02T16:57:40.065Z,1.89
2018-06-02T17:03:35.085Z,2.12
2018-06-02T17:09:30.048Z,2.61
2018-06-02T17:15:25.047Z,2.92
2018-06-02T17:21:20.061Z,2.29
2018-06-02T17:27:15.079Z,2.52
2018-06-02T17:33:10.069Z,2.11
2018-06-02T17:39:05.072Z,2.48
2018-06-02T17:45:00.080Z,3.13
2018-06-02T17:50:55.085Z,3.31
2018-06-02T17:56:50.066Z,3.27
2018-06-02T18:02:45.073Z,2.89
2018-06-02T18:08:40.189Z,3.47
2018-06-02T18:14:35.114Z,3.28
2018-06-02T18:20:30.068Z,5.51
2018-06-02T18:26:25.129Z,3.52
2018-06-02T18:32:20.116Z,2.57
2018-06-02T18:38:15.082Z,3.03
2018-06-02T18:44:10.113Z,3.22
2018-06-02T18:50:05.198Z,4.11
2018-06-02T18:56:00.115Z,3.26
2018-06-02T19:01:55.161Z,3.93
2018-06-02T19:07:50.191Z,4.11
2018-06-02T19:13:45.174Z,6.03
2018-06-02T19:19:40.120Z,5.77
2018-06-02T19:25:35.172Z,5.21
2018-06-02T19:31:30.162Z,3.39
2018-06-02T19:37:25.259Z,15.44
2018-06-02T19:43:20.188Z,9.68
2018-06-02T19:49:15.189Z,4.24
2018-06-02T19:55:10.198Z,4.48
2018-06-02T20:01:05.177Z,3.6
2018-06-02T20:07:00.213Z,3.65
2018-06-02T20:12:55.231Z,3.12
2018-06-02T20:18:50.194Z,3.11
2018-06-02T20:24:45.185Z,3.89
2018-06-02T20:30:40.300Z,3.46
2018-06-02T20:36:35.223Z,3.64
2018-06-02T20:42:30.268Z,3.42
2018-06-02T20:48:25.283Z,3.53
2018-06-02T20:54:20.235Z,3.83
2018-06-02T21:00:15.213Z,4.1
2018-06-02T21:06:10.223Z,4.03
2018-06-02T21:12:05.204Z,4.36
2018-06-02T21:18:00.276Z,4.38
2018-06-02T21:23:55.258Z,3.99
2018-06-02T21:29:50.305Z,3.73
2018-06-02T21:35:45.228Z,3.98
2018-06-02T21:41:40.322Z,3.59
2018-06-02T21:47:35.285Z,3.05
2018-06-02T21:53:30.346Z,3.47
2018-06-02T21:59:27.512Z,3.32
2018-06-02T22:05:20.305Z,3.86
2018-06-02T22:11:15.286Z,3.48
2018-06-02T22:17:10.341Z,3.73
2018-06-02T22:23:05.302Z,3.81
2018-06-02T22:29:00.291Z,3.59
2018-06-02T22:34:55.296Z,3.57
2018-06-02T22:40:50.318Z,3.76
2018-06-02T22:46:45.335Z,3.7
2018-06-02T22:52:40.348Z,4.24
2018-06-02T22:58:35.377Z,4.76
2018-06-02T23:04:30.341Z,4.41
2018-06-02T23:10:25.349Z,4.85
2018-06-02T23:16:20.352Z,5.1
2018-06-02T23:22:15.341Z,4.73
2018-06-02T23:28:10.372Z,5.06
2018-06-02T23:34:05.318Z,4.76
2018-06-02T23:40:00.359Z,5.17
2018-06-02T23:45:55.355Z,4.57
2018-06-02T23:51:50.415Z,4.58
2018-06-02T23:57:45.389Z,5.64
